Time,TemperatureF,DewpointF,PressureIn,WindDirection,WindDirectionDegrees,WindSpeedMPH,WindSpeedGustMPH,Humidity,HourlyPrecipIn,Conditions,Clouds,dailyrainin,SoftwareType,DateUTC
2013-04-12 00:00:00,74.8,70.3,29.65,SE,135,5.6,17.5,86,0.00,,OVC100,0.00,VWS V13.01,2013-04-11 14:00:00,
2013-04-12 00:15:00,74.9,70.4,29.64,SE,135,6.9,26.2,86,0.00,,OVC100,0.00,VWS V13.01,2013-04-11 14:15:00,
2013-04-12 00:30:00,74.7,70.6,29.64,SSE,158,8.1,21.3,87,0.00,,OVC100,0.00,VWS V13.01,2013-04-11 14:30:00,
2013-04-12 00:45:00,74.5,70.4,29.64,SE,135,6.9,16.3,87,0.00,,OVC100,0.00,VWS V13.01,2013-04-11 14:45:00,
2013-04-12 01:00:00,74.6,70.1,29.64,SE,135,6.9,13.7,86,0.00,,OVC100,0.00,VWS V13.01,2013-04-11 15:00:00,
2013-04-12 01:15:00,74.7,70.6,29.64,SSE,158,6.9,17.5,87,0.00,,OVC100,0.00,VWS V13.01,2013-04-11 15:15:00,
2013-04-12 01:30:00,74.7,70.6,29.62,South,180,6.9,16.3,87,0.00,,OVC100,0.00,VWS V13.01,2013-04-11 15:30:00,
2013-04-12 01:45:00,74.7,70.6,29.61,SE,135,6.9,17.5,87,0.00,,OVC100,0.00,VWS V13.01,2013-04-11 15:45:00,
2013-04-12 02:00:00,74.7,70.6,29.62,SE,135,8.1,17.5,87,0.00,,OVC100,0.00,VWS V13.01,2013-04-11 16:00:00,
2013-04-12 02:15:00,74.7,70.6,29.61,SE,135,6.9,16.3,87,0.00,,OVC100,0.00,VWS V13.01,2013-04-11 16:15:00,
2013-04-12 02:30:00,74.9,71.1,29.61,SE,135,6.9,17.5,88,0.00,,OVC100,0.00,VWS V13.01,2013-04-11 16:30:00,
2013-04-12 02:45:00,74.7,70.6,29.61,SSE,158,6.9,17.5,87,0.00,,OVC100,0.00,VWS V13.01,2013-04-11 16:45:00,
2013-04-12 03:00:00,74.8,71.0,29.61,SSE,158,6.9,16.3,88,0.00,,OVC100,0.00,VWS V13.01,2013-04-11 17:00:00,
2013-04-12 03:15:00,74.7,71.2,29.60,SSE,158,6.9,17.5,89,0.00,,OVC100,0.00,VWS V13.01,2013-04-11 17:15:00,
2013-04-12 03:30:00,74.5,71.1,29.60,SE,135,6.9,16.3,89,0.00,,OVC100,0.00,VWS V13.01,2013-04-11 17:30:00,
2013-04-12 03:45:00,74.6,70.5,29.60,SE,135,8.1,17.5,87,0.00,,OVC100,0.00,VWS V13.01,2013-04-11 17:45:00,
2013-04-12 04:00:00,74.6,71.2,29.60,SE,135,8.1,20.0,89,0.00,,OVC100,0.00,VWS V13.01,2013-04-11 18:00:00,
2013-04-12 04:15:00,74.2,70.8,29.60,SE,135,6.9,18.7,89,0.00,,OVC100,0.00,VWS V13.01,2013-04-11 18:15:00,
2013-04-12 04:30:00,74.3,70.5,29.59,SE,135,8.1,17.5,88,0.00,,OVC100,0.00,VWS V13.01,2013-04-11 18:30:00,
2013-04-12 04:45:00,74.6,70.5,29.59,SE,135,8.1,22.5,87,0.00,,OVC100,0.00,VWS V13.01,2013-04-11 18:45:00,
2013-04-12 05:00:00,74.7,70.2,29.59,SE,135,8.1,22.5,86,0.00,,OVC100,0.00,VWS V13.01,2013-04-11 19:00:00,
2013-04-12 05:15:00,74.6,70.1,29.59,SSE,158,6.9,18.7,86,0.00,,OVC100,0.00,VWS V13.01,2013-04-11 19:15:00,
2013-04-12 05:30:00,74.7,70.2,29.58,SSE,158,5.6,17.5,86,0.00,,OVC100,0.00,VWS V13.01,2013-04-11 19:30:00,
2013-04-12 05:45:00,74.6,70.1,29.59,SE,135,6.9,15.0,86,0.00,,OVC100,0.00,VWS V13.01,2013-04-11 19:45:00,
2013-04-12 06:00:00,74.7,70.2,29.60,SE,135,6.9,20.0,86,0.00,,OVC100,0.00,VWS V13.01,2013-04-11 20:00:00,
2013-04-12 06:15:00,74.7,70.2,29.61,SE,135,5.6,15.0,86,0.00,,OVC100,0.00,VWS V13.01,2013-04-11 20:15:00,
2013-04-12 06:30:00,74.9,70.1,29.62,SSE,158,4.4,13.7,85,0.00,,OVC100,0.00,VWS V13.01,2013-04-11 20:30:00,
2013-04-12 06:45:00,75.3,70.5,29.63,SE,135,4.4,15.0,85,0.00,,OVC100,0.00,VWS V13.01,2013-04-11 20:45:00,
2013-04-12 07:00:00,75.5,71.0,29.64,SE,135,4.4,15.0,86,0.00,,OVC100,0.00,VWS V13.01,2013-04-11 21:00:00,
2013-04-12 07:15:00,75.2,71.4,29.64,SE,135,3.1,11.3,88,0.00,,OVC100,0.00,VWS V13.01,2013-04-11 21:15:00,
2013-04-12 07:30:00,75.1,71.3,29.64,SE,135,4.4,12.5,88,0.00,,OVC100,0.00,VWS V13.01,2013-04-11 21:30:00,
2013-04-12 07:45:00,75.3,71.5,29.66,SE,135,4.4,12.5,88,0.00,,OVC100,0.00,VWS V13.01,2013-04-11 21:45:00,
2013-04-12 08:00:00,75.3,72.2,29.66,SE,135,4.4,13.7,90,0.00,,OVC100,0.00,VWS V13.01,2013-04-11 22:00:00,
2013-04-12 08:15:00,74.7,72.2,29.67,SE,135,4.4,13.7,92,0.00,,OVC100,0.00,VWS V13.01,2013-04-11 22:15:00,
2013-04-12 08:30:00,74.5,72.0,29.66,SE,135,4.4,11.3,92,0.00,,OVC100,0.00,VWS V13.01,2013-04-11 22:30:00,
2013-04-12 08:35:00,74.9,72.1,29.66,SE,130,9.4,11.3,91,0.00,,BKN035,0.00,VWS V13.01,2013-04-11 22:35:00,
2013-04-12 08:40:00,75.1,72.3,29.66,SW,230,6.9,11.3,91,0.00,,BKN035,0.00,VWS V13.01,2013-04-11 22:40:00,
2013-04-12 08:45:00,75.3,72.2,29.66,East,94,4.4,11.3,90,0.00,,BKN040,0.00,VWS V13.01,2013-04-11 22:45:00,
2013-04-12 08:50:00,75.4,72.3,29.66,South,182,3.1,11.3,90,0.00,,BKN040,0.00,VWS V13.01,2013-04-11 22:50:00,
2013-04-12 08:55:00,75.6,72.5,29.66,SE,141,9.4,11.3,90,0.00,,BKN040,0.00,VWS V13.01,2013-04-11 22:55:00,
2013-04-12 09:00:00,75.8,72.3,29.66,South,188,8.1,11.3,89,0.00,,BKN022,0.00,VWS V13.01,2013-04-11 23:00:00,
2013-04-12 09:05:00,76.1,72.6,29.66,ESE,119,4.4,11.3,89,0.00,,BKN022,0.00,VWS V13.01,2013-04-11 23:05:00,
2013-04-12 09:10:00,76.1,72.6,29.66,SE,132,3.1,11.3,89,0.00,,BKN022,0.00,VWS V13.01,2013-04-11 23:10:00,
2013-04-12 09:15:00,76.1,72.6,29.67,South,189,9.4,11.3,89,0.00,,BKN022,0.00,VWS V13.01,2013-04-11 23:15:00,
2013-04-12 09:30:00,76.3,72.8,29.68,SE,135,5.6,16.3,89,0.00,,BKN022,0.00,VWS V13.01,2013-04-11 23:30:00,
2013-04-12 09:45:00,76.6,73.4,29.68,SE,135,6.9,16.3,90,0.00,,BKN022,0.00,VWS V13.01,2013-04-11 23:45:00,
2013-04-12 10:00:00,76.2,74.0,29.68,SE,135,4.4,13.7,93,0.00,,BKN022,0.00,VWS V13.01,2013-04-12 00:00:00,
2013-04-12 10:15:00,75.5,74.0,29.68,SE,135,8.1,17.5,95,0.02,,BKN022,0.02,VWS V13.01,2013-04-12 00:15:00,
2013-04-12 10:30:00,76.0,73.2,29.67,SE,135,6.9,27.5,91,0.02,,BKN022,0.02,VWS V13.01,2013-04-12 00:30:00,
2013-04-12 10:45:00,77.2,73.7,29.67,SSE,158,6.9,20.0,89,0.02,,BKN022,0.02,VWS V13.01,2013-04-12 00:45:00,
2013-04-12 11:00:00,77.8,72.6,29.66,SE,135,9.4,28.8,84,0.02,,BKN022,0.02,VWS V13.01,2013-04-12 01:00:00,
2013-04-12 11:15:00,78.8,73.6,29.66,SE,135,11.9,28.8,84,0.02,,BKN022,0.02,VWS V13.01,2013-04-12 01:15:00,
2013-04-12 11:30:00,79.1,72.8,29.64,SSE,158,8.1,17.5,81,0.00,,BKN022,0.02,VWS V13.01,2013-04-12 01:30:00,
2013-04-12 11:45:00,79.5,72.4,29.64,SE,135,11.9,30.0,79,0.00,,BKN022,0.02,VWS V13.01,2013-04-12 01:45:00,
2013-04-12 12:00:00,79.7,73.0,29.64,SE,135,9.4,21.3,80,0.00,,BKN022,0.02,VWS V13.01,2013-04-12 02:00:00,
2013-04-12 12:15:00,80.1,72.2,29.64,SSE,158,9.4,23.7,77,0.00,,BKN022,0.02,VWS V13.01,2013-04-12 02:15:00,
2013-04-12 12:30:00,81.0,72.7,29.63,SE,135,9.4,27.5,76,0.00,,BKN022,0.02,VWS V13.01,2013-04-12 02:30:00,
2013-04-12 12:45:00,81.6,72.9,29.63,SE,135,9.4,22.5,75,0.00,,BKN022,0.02,VWS V13.01,2013-04-12 02:45:00,
2013-04-12 13:00:00,82.1,73.0,29.63,SE,135,9.4,26.2,74,0.00,,BKN022,0.02,VWS V13.01,2013-04-12 03:00:00,
2013-04-12 13:15:00,82.6,72.7,29.63,SE,135,10.6,21.3,72,0.00,,BKN022,0.02,VWS V13.01,2013-04-12 03:15:00,
2013-04-12 13:30:00,82.8,72.9,29.62,SE,135,8.1,23.7,72,0.00,,BKN022,0.02,VWS V13.01,2013-04-12 03:30:00,
2013-04-12 13:45:00,83.0,73.1,29.61,SE,135,9.4,21.3,72,0.00,,BKN022,0.02,VWS V13.01,2013-04-12 03:45:00,
2013-04-12 14:00:00,82.7,73.6,29.61,SE,135,6.9,18.7,74,0.00,,BKN022,0.02,VWS V13.01,2013-04-12 04:00:00,
2013-04-12 14:15:00,82.4,73.7,29.61,SE,135,9.4,26.2,75,0.00,,BKN022,0.02,VWS V13.01,2013-04-12 04:15:00,
2013-04-12 14:30:00,82.2,73.1,29.60,SE,135,6.9,16.3,74,0.00,,BKN022,0.02,VWS V13.01,2013-04-12 04:30:00,
2013-04-12 14:45:00,82.4,73.3,29.61,SE,135,8.1,21.3,74,0.00,,BKN022,0.02,VWS V13.01,2013-04-12 04:45:00,
2013-04-12 15:00:00,81.7,73.0,29.60,SE,135,9.4,21.3,75,0.00,,BKN022,0.02,VWS V13.01,2013-04-12 05:00:00,
2013-04-12 15:15:00,80.9,72.6,29.59,SE,135,8.1,21.3,76,0.00,,BKN022,0.02,VWS V13.01,2013-04-12 05:15:00,
2013-04-12 15:30:00,80.3,73.2,29.62,SE,135,6.9,22.5,79,0.00,,BKN022,0.02,VWS V13.01,2013-04-12 05:30:00,
2013-04-12 15:45:00,79.8,72.7,29.61,SE,135,6.9,15.0,79,0.00,,BKN022,0.02,VWS V13.01,2013-04-12 05:45:00,
2013-04-12 16:00:00,79.5,72.4,29.62,SE,135,5.6,12.5,79,0.00,,BKN022,0.02,VWS V13.01,2013-04-12 06:00:00,
2013-04-12 16:15:00,78.9,72.2,29.62,SE,135,6.9,15.0,80,0.00,,BKN022,0.02,VWS V13.01,2013-04-12 06:15:00,
2013-04-12 16:30:00,78.4,72.8,29.61,SE,135,8.1,23.7,83,0.00,,BKN022,0.02,VWS V13.01,2013-04-12 06:30:00,
2013-04-12 16:45:00,77.6,72.7,29.61,SE,135,5.6,15.0,85,0.00,,BKN022,0.02,VWS V13.01,2013-04-12 06:45:00,
2013-04-12 17:00:00,77.0,72.5,29.61,SE,135,5.6,16.3,86,0.00,,BKN022,0.02,VWS V13.01,2013-04-12 07:00:00,
2013-04-12 17:20:00,76.7,72.5,29.62,SE,135,4.4,16.3,87,0.00,,BKN022,0.02,VWS V13.01,2013-04-12 07:20:00,
2013-04-12 17:21:00,76.5,72.0,29.62,South,175,10.6,16.3,86,0.00,,BKN022,0.02,VWS V13.01,2013-04-12 07:21:00,
2013-04-12 17:26:00,76.5,72.0,29.62,West,281,3.1,16.3,86,0.00,,BKN022,0.02,VWS V13.01,2013-04-12 07:26:00,
2013-04-12 17:30:00,76.6,72.1,29.62,South,180,5.6,23.7,86,0.00,,BKN022,0.02,VWS V13.01,2013-04-12 07:30:00,
2013-04-12 17:45:00,76.4,71.9,29.62,SSE,158,4.4,15.0,86,0.00,,BKN022,0.02,VWS V13.01,2013-04-12 07:45:00,
2013-04-12 18:00:00,76.3,71.5,29.63,South,180,5.6,12.5,85,0.00,,BKN022,0.02,VWS V13.01,2013-04-12 08:00:00,
2013-04-12 18:15:00,76.3,71.8,29.64,South,180,5.6,12.5,86,0.00,,BKN022,0.02,VWS V13.01,2013-04-12 08:15:00,
2013-04-12 18:30:00,76.0,71.5,29.64,South,180,6.9,17.5,86,0.00,,BKN022,0.02,VWS V13.01,2013-04-12 08:30:00,
2013-04-12 18:45:00,76.1,71.3,29.66,South,180,5.6,16.3,85,0.00,,BKN022,0.02,VWS V13.01,2013-04-12 08:45:00,
2013-04-12 19:00:00,76.2,71.4,29.66,South,180,5.6,13.7,85,0.00,,BKN022,0.02,VWS V13.01,2013-04-12 09:00:00,
2013-04-12 19:15:00,76.0,71.5,29.67,South,180,4.4,11.3,86,0.00,,BKN022,0.02,VWS V13.01,2013-04-12 09:15:00,
2013-04-12 19:30:00,75.6,71.5,29.69,SSE,158,5.6,12.5,87,0.01,,BKN022,0.02,VWS V13.01,2013-04-12 09:30:00,
2013-04-12 19:45:00,75.4,71.6,29.69,SSE,158,5.6,13.7,88,0.01,,BKN022,0.02,VWS V13.01,2013-04-12 09:45:00,
2013-04-12 20:00:00,74.9,71.8,29.68,SSE,158,4.4,11.3,90,0.01,,BKN022,0.02,VWS V13.01,2013-04-12 10:00:00,
2013-04-12 20:15:00,74.4,71.6,29.69,SSE,158,4.4,13.7,91,0.01,,BKN022,0.02,VWS V13.01,2013-04-12 10:15:00,
2013-04-12 20:30:00,74.1,71.6,29.69,SSW,202,1.9,7.5,92,0.01,,BKN022,0.02,VWS V13.01,2013-04-12 10:30:00,
2013-04-12 20:45:00,73.8,71.7,29.70,South,180,1.9,7.5,93,0.00,,BKN022,0.02,VWS V13.01,2013-04-12 10:45:00,
2013-04-12 21:00:00,73.7,71.6,29.70,South,180,3.1,8.7,93,0.00,,BKN022,0.02,VWS V13.01,2013-04-12 11:00:00,
2013-04-12 21:15:00,73.7,71.6,29.69,South,180,3.1,11.3,93,0.00,,BKN022,0.02,VWS V13.01,2013-04-12 11:15:00,
2013-04-12 21:30:00,73.7,71.2,29.69,SSW,202,3.1,10.0,92,0.00,,BKN022,0.02,VWS V13.01,2013-04-12 11:30:00,
2013-04-12 21:45:00,73.7,71.2,29.69,SSW,202,3.1,10.0,92,0.00,,BKN022,0.02,VWS V13.01,2013-04-12 11:45:00,
2013-04-12 22:00:00,73.9,71.1,29.69,South,180,4.4,16.3,91,0.00,,BKN022,0.02,VWS V13.01,2013-04-12 12:00:00,
2013-04-12 22:15:00,74.2,71.1,29.68,South,180,5.6,11.3,90,0.00,,BKN022,0.02,VWS V13.01,2013-04-12 12:15:00,
2013-04-12 22:30:00,74.4,71.6,29.70,South,180,3.1,11.3,91,0.01,,BKN022,0.03,VWS V13.01,2013-04-12 12:30:00,
2013-04-12 22:45:00,73.9,71.8,29.70,South,180,3.1,8.7,93,0.02,,BKN022,0.05,VWS V13.01,2013-04-12 12:45:00,
2013-04-12 23:00:00,73.4,71.6,29.69,SSW,202,5.6,15.0,94,0.09,,BKN022,0.11,VWS V13.01,2013-04-12 13:00:00,
2013-04-12 23:15:00,72.9,71.4,29.69,South,180,4.4,15.0,95,0.17,,BKN022,0.20,VWS V13.01,2013-04-12 13:15:00,
2013-04-12 23:30:00,72.7,71.2,29.70,SSW,202,1.9,8.7,95,0.17,,BKN022,0.20,VWS V13.01,2013-04-12 13:30:00,
2013-04-12 23:45:00,72.7,71.2,29.70,South,180,1.9,7.5,95,0.17,,BKN022,0.20,VWS V13.01,2013-04-12 13:45:00,